Decoded Metar for LIBG (GROTTAGLIE in ITALY) (IATA:TAR) | Meteo·Mobile Aviation Weather
aviador You're here:

LIBG Decoded Metar

GROTTAGLIE in ITALY
Report Time2018-12-10 10:50:00
UTC Time2018-12-10 11:51:11
Flight Rules vfr VFR
Wind030° at 15 kt
W.Decomp.*RWY 35: 12.0 kt HW 9.0 kt RCW
W.Rank030° ranks 6
Current wind is above 030° avg. (7.7)
Visibility9999 m
Phenomena:N/A
Clouds:Scattered 030 Hf
Expected CloudBase > 3,200 ft AGL from Temp-Dew spread
CeilingNone
Temp12°C (ISA -3)
Dew Point04°C (58% RH)
AAT5.3°C
QNH1011 hPa
Density Alt102 ft
Elevation226 ft
Report Wrong Elevation
Raw Report
METAR LIBG 101050Z 03015KT 9999 SCT030 12/04 Q1011=

Extra information for LIBG:More info

Metar Taf Metar & Taf Last 4 Metars F.Rules Stats Wind Profile Meteogram Temp Stats Airport Information Weather charts Add Link Nearby VenuesMetar ALERT Operation Metar Decoded Social comments